Battle Creek, Michigan
Current Conditions -  °F | °C
As of 5:24 AM on Saturday 22 Nov 2014 (Local Time) from KBTL Reporting Station
Freezing Rain Freezing Rain  
Wind Chill: 23°   Ceiling: 1600
Heat Index: 34°   Visibility: 7mi
Dew Point: 25°   Wind: 17mph
Humidity: 70%   Direction: 200°SSW
Pressure: 30.11"   Gusts: 25mph
Location:  42.32°N, 85.18°W
Report Text: KBTL 221024Z 20015G22KT 7SM -FZRA BKN016 OVC022 01/M04 A3011 RMK AO2 RAE18FZRAB18 P0002 I1001 T00111039
Loading
Personal Weather Stations






























Interactive Weather Map New forecast layout! Learn more

10-Day Weather Forecast

Advertisements
Track Severe Weather on mobile